Time;durP1;ratioP1;P1;durP2;ratioP2;P2;SDS_P1;SDS_P2;PMS_P1;PMS_P2;Temp;Humidity;BMP_temperature;BMP_pressure;BME280_temperature;BME280_humidity;BME280_pressure;Samples;Min_cycle;Max_cycle;Signal;HPM_P1;HPM_P2
2022/04/12 00:01:01;;;;;;;5.07;1.40;;;12.00;1.00;;;;;;4974385;28;20503;-83
2022/04/12 00:03:27;;;;;;;4.05;1.40;;;12.00;1.00;;;;;;4973761;28;20053;-83
2022/04/12 00:05:53;;;;;;;5.78;1.67;;;12.00;1.00;;;;;;4973734;28;20058;-86
2022/04/12 00:08:19;;;;;;;2.80;1.30;;;11.90;1.00;;;;;;4974089;28;20110;-84
2022/04/12 00:10:45;;;;;;;4.43;1.50;;;11.90;1.00;;;;;;4974228;28;20126;-84
2022/04/12 00:13:12;;;;;;;3.75;1.50;;;11.90;1.00;;;;;;4973590;28;20023;-84
2022/04/12 00:15:38;;;;;;;4.30;1.58;;;12.00;1.00;;;;;;4974148;28;20023;-83
2022/04/12 00:20:48;;;;;;;5.72;1.70;;;11.90;1.00;;;;;;4974168;28;20045;-83
2022/04/12 00:23:14;;;;;;;2.70;1.35;;;11.90;1.00;;;;;;4973826;28;20035;-83
2022/04/12 00:25:44;;;;;;;3.92;1.70;;;11.90;1.00;;;;;;4974341;28;20086;-84
2022/04/12 00:28:11;;;;;;;2.58;1.35;;;11.90;1.00;;;;;;4973505;28;20089;-83
2022/04/12 00:30:37;;;;;;;5.88;1.60;;;11.90;1.00;;;;;;4973743;28;20436;-83
2022/04/12 00:33:03;;;;;;;3.33;1.20;;;11.80;1.00;;;;;;4973242;28;20030;-84
2022/04/12 00:35:29;;;;;;;3.47;1.30;;;11.80;1.00;;;;;;4973592;28;20043;-84
2022/04/12 00:37:56;;;;;;;3.75;1.50;;;11.80;1.00;;;;;;4974617;28;20029;-84
2022/04/12 00:40:24;;;;;;;4.28;1.60;;;11.80;1.00;;;;;;4973535;28;20069;-83
2022/04/12 00:42:51;;;;;;;4.15;1.60;;;11.80;1.00;;;;;;4973466;28;20054;-83
2022/04/12 00:45:17;;;;;;;4.30;1.40;;;11.80;1.00;;;;;;4955921;28;20043;-83
2022/04/12 00:47:44;;;;;;;2.90;1.40;;;11.80;1.00;;;;;;4972782;28;20022;-84
2022/04/12 00:50:11;;;;;;;3.70;1.30;;;11.80;1.00;;;;;;4973561;28;20035;-84
2022/04/12 00:52:41;;;;;;;2.97;1.10;;;11.90;1.00;;;;;;4972138;28;20057;-83
2022/04/12 00:55:07;;;;;;;3.58;1.20;;;11.90;1.00;;;;;;4972942;28;20174;-82
2022/04/12 00:57:34;;;;;;;3.95;1.23;;;11.90;1.00;;;;;;4973503;28;20034;-84
2022/04/12 01:00:00;;;;;;;5.20;1.30;;;11.90;1.00;;;;;;4975600;28;20058;-88
2022/04/12 01:02:26;;;;;;;3.42;1.42;;;11.90;1.00;;;;;;4958622;28;20027;-90
2022/04/12 01:04:52;;;;;;;4.57;1.48;;;11.90;1.00;;;;;;4958445;28;20491;-90
2022/04/12 01:07:19;;;;;;;2.10;1.20;;;11.90;1.00;;;;;;4975049;28;20170;-90
2022/04/12 01:09:45;;;;;;;4.70;1.73;;;11.90;1.00;;;;;;4957682;28;20050;-91
2022/04/12 01:12:11;;;;;;;3.78;1.27;;;11.90;1.00;;;;;;4958788;28;20876;-90
2022/04/12 01:14:38;;;;;;;2.70;1.00;;;12.00;1.00;;;;;;4957853;28;20089;-91
2022/04/12 01:17:07;;;;;;;4.60;1.20;;;12.00;1.00;;;;;;4975623;28;20158;-90
2022/04/12 01:19:33;;;;;;;3.03;1.20;;;12.00;1.00;;;;;;4958170;28;20033;-91
2022/04/12 01:22:03;;;;;;;2.20;0.98;;;12.00;1.00;;;;;;4959006;28;20023;-90
2022/04/12 01:24:31;;;;;;;3.63;0.90;;;12.10;1.00;;;;;;4958067;28;20126;-91
2022/04/12 01:26:58;;;;;;;3.42;1.20;;;12.10;1.00;;;;;;4975412;28;20484;-90
2022/04/12 01:29:24;;;;;;;2.75;1.02;;;12.10;1.00;;;;;;4974855;28;20049;-90
2022/04/12 01:31:50;;;;;;;1.40;1.10;;;12.00;1.00;;;;;;4957960;28;20037;-91
2022/04/12 01:34:15;;;;;;;2.10;1.05;;;12.10;1.00;;;;;;4957235;28;20031;-90
2022/04/12 01:36:41;;;;;;;2.05;1.00;;;12.10;1.00;;;;;;4944468;28;20050;-90
2022/04/12 01:39:06;;;;;;;6.03;1.10;;;12.10;1.00;;;;;;4939611;28;20030;-90
2022/04/12 01:41:32;;;;;;;2.65;1.02;;;12.10;1.00;;;;;;4957099;28;20089;-91
2022/04/12 01:43:58;;;;;;;2.97;1.20;;;12.10;1.00;;;;;;4957109;28;20065;-91
2022/04/12 01:46:24;;;;;;;2.83;1.10;;;12.00;1.00;;;;;;4956879;28;20492;-91
2022/04/12 01:48:50;;;;;;;3.53;1.13;;;12.10;1.00;;;;;;4942079;29;20039;-90
2022/04/12 01:51:16;;;;;;;2.60;1.10;;;12.10;1.00;;;;;;4964958;28;20038;-90
2022/04/12 01:53:42;;;;;;;3.30;1.10;;;12.10;1.00;;;;;;4973359;28;20029;-91
2022/04/12 01:56:08;;;;;;;7.07;1.38;;;12.00;1.00;;;;;;4972146;28;20407;-91
2022/04/12 01:58:35;;;;;;;2.88;1.08;;;12.00;1.00;;;;;;4954230;28;20027;-91
2022/04/12 02:01:02;;;;;;;2.60;1.02;;;12.10;1.00;;;;;;4967807;28;20570;-90
2022/04/12 02:03:27;;;;;;;2.10;1.23;;;12.20;1.00;;;;;;4974972;28;20027;-91
2022/04/12 02:05:54;;;;;;;2.47;1.38;;;12.20;1.00;;;;;;4973531;28;20039;-91
2022/04/12 02:08:20;;;;;;;2.53;1.02;;;12.20;1.00;;;;;;4972951;28;20122;-90
2022/04/12 02:10:46;;;;;;;4.82;1.27;;;12.40;1.00;;;;;;4957128;28;20117;-90
2022/04/12 02:13:12;;;;;;;3.65;1.30;;;12.40;1.00;;;;;;4955759;28;20463;-90
2022/04/12 02:15:37;;;;;;;1.73;0.80;;;12.40;1.00;;;;;;4973759;28;20396;-90
2022/04/12 02:18:03;;;;;;;4.32;0.85;;;12.50;1.00;;;;;;4956451;28;20031;-90
2022/04/12 02:20:29;;;;;;;3.15;1.25;;;12.60;1.00;;;;;;4973141;28;20049;-90
2022/04/12 02:22:55;;;;;;;2.08;0.90;;;12.70;1.00;;;;;;4956794;28;20546;-90
2022/04/12 02:25:20;;;;;;;4.22;1.02;;;12.70;1.00;;;;;;4973583;28;20031;-90
2022/04/12 02:27:46;;;;;;;2.53;0.82;;;12.70;1.00;;;;;;4955473;28;20035;-90
2022/04/12 02:30:13;;;;;;;5.45;1.00;;;12.80;1.00;;;;;;4973432;28;20158;-90
2022/04/12 02:32:39;;;;;;;1.52;0.75;;;12.80;1.00;;;;;;4956578;28;20532;-90
2022/04/12 02:35:05;;;;;;;2.42;1.08;;;12.80;1.00;;;;;;4955943;28;20027;-90
2022/04/12 02:37:31;;;;;;;2.10;1.10;;;12.80;1.00;;;;;;4973323;28;20035;-90
2022/04/12 02:39:57;;;;;;;2.53;0.90;;;12.90;1.00;;;;;;4955635;28;20033;-90
2022/04/12 02:42:22;;;;;;;2.97;1.10;;;12.90;1.00;;;;;;4955309;28;20053;-91
2022/04/12 02:44:48;;;;;;;1.52;0.82;;;12.90;1.00;;;;;;4956172;28;20019;-90
2022/04/12 02:47:14;;;;;;;2.75;1.15;;;12.90;1.00;;;;;;4940601;28;20122;-91
2022/04/12 02:49:39;;;;;;;3.10;1.00;;;12.90;1.00;;;;;;4956728;28;20031;-89
2022/04/12 02:52:06;;;;;;;2.13;1.00;;;12.90;1.00;;;;;;4972812;28;20035;-91
2022/04/12 02:54:31;;;;;;;4.40;1.25;;;13.00;1.00;;;;;;4956320;28;20023;-89
2022/04/12 02:56:57;;;;;;;1.63;1.02;;;13.00;1.00;;;;;;4972374;28;20042;-90
2022/04/12 02:59:23;;;;;;;2.03;0.98;;;13.00;1.00;;;;;;4958019;28;20053;-90
2022/04/12 03:01:49;;;;;;;2.25;0.80;;;13.00;1.00;;;;;;4956554;28;20030;-90
2022/04/12 03:04:15;;;;;;;3.05;0.90;;;13.10;1.00;;;;;;4955418;28;20050;-90
2022/04/12 03:06:41;;;;;;;2.35;0.90;;;13.10;1.00;;;;;;4956239;28;20029;-90
2022/04/12 03:09:06;;;;;;;2.10;0.90;;;13.00;1.00;;;;;;4972715;28;20039;-91
2022/04/12 03:11:32;;;;;;;4.43;1.30;;;12.90;1.00;;;;;;4958513;28;20027;-91
2022/04/12 03:13:58;;;;;;;2.70;0.82;;;12.90;1.00;;;;;;4960204;28;20086;-91
2022/04/12 03:16:23;;;;;;;2.78;1.30;;;13.00;1.00;;;;;;4959862;28;20129;-91
2022/04/12 03:18:49;;;;;;;3.53;1.20;;;13.00;1.00;;;;;;4976731;28;20082;-91
2022/04/12 03:21:15;;;;;;;2.25;1.08;;;13.10;1.00;;;;;;4959027;28;20123;-91
2022/04/12 03:23:40;;;;;;;3.10;0.90;;;13.00;1.00;;;;;;4977203;28;20110;-90
2022/04/12 03:26:06;;;;;;;1.98;0.80;;;13.00;1.00;;;;;;4960022;28;20125;-90
2022/04/12 03:28:33;;;;;;;1.35;0.82;;;12.90;1.00;;;;;;4978079;28;20862;-90
2022/04/12 03:30:59;;;;;;;3.33;0.93;;;12.90;1.00;;;;;;4962093;28;20388;-90
2022/04/12 03:33:25;;;;;;;2.85;0.73;;;12.90;1.00;;;;;;4972038;28;20022;-90
2022/04/12 03:35:50;;;;;;;1.95;0.98;;;13.00;1.00;;;;;;4989441;28;20055;-90
2022/04/12 03:38:18;;;;;;;2.28;0.80;;;13.00;1.00;;;;;;4941615;29;20524;-91
2022/04/12 03:40:46;;;;;;;3.10;1.73;;;12.90;1.00;;;;;;4957561;29;20051;-90
2022/04/12 03:43:11;;;;;;;1.77;0.80;;;12.90;1.00;;;;;;4957835;29;20500;-90
2022/04/12 03:45:37;;;;;;;1.83;0.80;;;12.90;1.00;;;;;;4967610;28;20050;-90
2022/04/12 03:48:04;;;;;;;4.05;0.95;;;12.90;1.00;;;;;;4959581;28;20033;-90
2022/04/12 03:50:31;;;;;;;2.03;0.93;;;12.90;1.00;;;;;;4977557;28;20105;-90
2022/04/12 03:52:57;;;;;;;2.72;1.10;;;12.80;1.00;;;;;;4977550;28;20038;-90
2022/04/12 03:55:31;;;;;;;2.75;0.90;;;12.90;1.00;;;;;;4977224;28;20037;-90
2022/04/12 03:58:02;;;;;;;1.40;0.82;;;12.80;1.00;;;;;;4959636;28;20082;-91
2022/04/12 04:00:29;;;;;;;3.95;1.30;;;12.80;1.00;;;;;;4960052;28;20033;-90
2022/04/12 04:02:56;;;;;;;2.35;1.30;;;12.70;1.00;;;;;;4959561;28;20407;-90
2022/04/12 04:05:23;;;;;;;3.88;0.93;;;12.60;1.00;;;;;;4959690;28;20043;-90
2022/04/12 04:07:49;;;;;;;2.42;1.10;;;12.50;1.00;;;;;;4940995;29;20028;-90
2022/04/12 04:10:14;;;;;;;3.00;0.98;;;12.40;1.00;;;;;;4958961;28;20042;-91
2022/04/12 04:12:40;;;;;;;4.25;1.20;;;12.40;1.00;;;;;;4976862;28;20031;-90
2022/04/12 04:15:11;;;;;;;1.73;1.23;;;12.30;1.00;;;;;;4950060;29;20027;-90
2022/04/12 04:17:39;;;;;;;2.63;1.25;;;12.30;1.00;;;;;;4957611;29;20042;-90
2022/04/12 04:20:05;;;;;;;4.50;1.38;;;12.20;1.00;;;;;;4957843;29;20042;-90
2022/04/12 04:22:31;;;;;;;4.18;1.75;;;12.10;1.00;;;;;;4939614;29;20034;-90
2022/04/12 04:24:57;;;;;;;3.80;1.50;;;11.90;1.00;;;;;;4940121;29;20122;-90
2022/04/12 04:27:23;;;;;;;2.65;1.15;;;11.80;1.00;;;;;;4940398;29;20122;-90
2022/04/12 04:29:49;;;;;;;2.47;1.10;;;11.80;1.00;;;;;;4946437;28;20026;-90
2022/04/12 04:32:14;;;;;;;3.47;1.10;;;11.80;1.00;;;;;;4973746;28;20369;-90
2022/04/12 04:34:40;;;;;;;3.22;1.02;;;11.90;1.00;;;;;;4940001;29;20146;-90
2022/04/12 04:37:05;;;;;;;6.82;1.48;;;12.00;1.00;;;;;;4956652;28;20468;-90
2022/04/12 04:39:31;;;;;;;3.95;1.13;;;11.90;1.00;;;;;;4946757;29;20016;-90
2022/04/12 04:41:56;;;;;;;5.07;1.20;;;12.00;1.00;;;;;;4939505;29;20468;-89
2022/04/12 04:44:22;;;;;;;4.25;1.50;;;12.00;1.00;;;;;;4956567;29;20023;-90
2022/04/12 04:46:48;;;;;;;3.80;1.42;;;12.00;1.00;;;;;;4957173;29;20106;-91
2022/04/12 04:49:13;;;;;;;3.67;1.30;;;11.90;1.00;;;;;;4975185;28;20154;-90
2022/04/12 04:51:41;;;;;;;4.18;1.30;;;11.90;1.00;;;;;;4964038;28;20035;-90
2022/04/12 04:54:07;;;;;;;2.75;1.50;;;11.70;1.00;;;;;;4976402;28;20035;-90
2022/04/12 04:56:33;;;;;;;4.30;1.38;;;11.70;1.00;;;;;;4958206;28;20030;-90
2022/04/12 04:58:58;;;;;;;3.65;1.40;;;11.70;1.00;;;;;;4958663;28;20030;-90
2022/04/12 05:01:24;;;;;;;2.47;1.13;;;11.80;1.00;;;;;;4958552;28;20034;-90
2022/04/12 05:03:50;;;;;;;3.28;1.40;;;11.70;1.00;;;;;;4958336;28;20027;-90
2022/04/12 05:06:16;;;;;;;2.90;1.05;;;11.80;1.00;;;;;;4958430;28;20121;-90
2022/04/12 05:08:41;;;;;;;2.72;1.20;;;11.70;1.00;;;;;;4958352;28;20054;-90
2022/04/12 05:11:07;;;;;;;2.00;1.08;;;11.70;1.00;;;;;;4975929;28;20406;-90
2022/04/12 05:13:32;;;;;;;4.32;1.20;;;11.60;1.00;;;;;;4958427;28;20121;-90
2022/04/12 05:15:58;;;;;;;9.70;1.30;;;11.60;1.00;;;;;;4941518;29;20039;-91
2022/04/12 05:18:24;;;;;;;3.35;1.38;;;11.60;1.00;;;;;;4956802;29;20082;-90
2022/04/12 05:20:49;;;;;;;2.03;1.13;;;11.60;1.00;;;;;;4955807;29;20027;-90
2022/04/12 05:23:16;;;;;;;5.20;1.25;;;11.50;1.00;;;;;;4955918;29;20090;-90
2022/04/12 05:25:42;;;;;;;2.55;1.17;;;11.50;1.00;;;;;;4938978;29;20098;-90
2022/04/12 05:28:07;;;;;;;2.28;1.15;;;11.60;1.00;;;;;;4970650;28;20026;-90
2022/04/12 05:30:33;;;;;;;2.85;1.52;;;11.70;1.00;;;;;;4963841;28;20034;-90
2022/04/12 05:32:59;;;;;;;2.95;1.23;;;11.70;1.00;;;;;;4972701;28;20026;-90
2022/04/12 05:35:25;;;;;;;4.18;1.40;;;11.70;1.00;;;;;;4955817;29;20481;-89
2022/04/12 05:37:52;;;;;;;4.20;1.50;;;11.70;1.00;;;;;;4938382;29;20031;-90
2022/04/12 05:40:20;;;;;;;2.33;1.30;;;11.90;1.00;;;;;;4956348;28;20035;-90
2022/04/12 05:42:46;;;;;;;5.65;1.65;;;11.80;1.00;;;;;;4956574;28;20054;-92
2022/04/12 05:45:13;;;;;;;4.13;1.52;;;12.00;1.00;;;;;;4956635;28;20492;-91
2022/04/12 05:47:50;;;;;;;3.70;1.50;;;12.10;1.00;;;;;;4956404;28;20038;-89
2022/04/12 05:50:21;;;;;;;3.50;1.70;;;12.10;1.00;;;;;;4972860;28;20029;-93
2022/04/12 05:52:47;;;;;;;2.95;1.75;;;12.10;1.00;;;;;;4973922;28;20042;-90
2022/04/12 05:55:15;;;;;;;3.85;1.20;;;12.30;1.00;;;;;;4956463;28;20042;-89
2022/04/12 05:57:53;;;;;;;2.95;1.00;;;12.40;1.00;;;;;;4973467;28;20038;-88
2022/04/12 06:00:20;;;;;;;4.32;1.38;;;12.60;1.00;;;;;;4956264;28;21030;-89
2022/04/12 06:02:50;;;;;;;6.03;1.38;;;12.70;1.00;;;;;;4956312;28;20027;-90
2022/04/12 06:05:18;;;;;;;2.17;1.20;;;12.70;1.00;;;;;;4955951;28;20381;-91
2022/04/12 06:07:44;;;;;;;4.50;2.08;;;12.80;1.00;;;;;;4973500;28;20062;-90
2022/04/12 06:10:11;;;;;;;5.15;1.67;;;12.80;1.00;;;;;;4942764;28;20062;-90
2022/04/12 06:12:37;;;;;;;3.03;1.05;;;12.90;1.00;;;;;;4946698;29;20555;-89
2022/04/12 06:15:03;;;;;;;2.75;1.10;;;13.00;1.00;;;;;;4962236;28;20027;-90
2022/04/12 06:17:34;;;;;;;3.78;1.40;;;13.00;1.00;;;;;;4955879;28;20035;-90
2022/04/12 06:20:08;;;;;;;3.72;1.10;;;13.30;1.00;;;;;;4973009;28;20034;-90
2022/04/12 06:22:34;;;;;;;2.85;1.20;;;13.40;1.00;;;;;;4955907;28;20447;-89
2022/04/12 06:25:01;;;;;;;3.30;1.35;;;13.50;1.00;;;;;;4956243;28;20463;-88
2022/04/12 06:27:40;;;;;;;2.15;1.23;;;13.50;1.00;;;;;;4971898;28;20061;-85
2022/04/12 06:30:15;;;;;;;2.78;1.13;;;13.40;1.00;;;;;;4954861;28;20038;-90
2022/04/12 06:32:42;;;;;;;2.50;1.20;;;13.30;1.00;;;;;;4956299;28;20476;-91
2022/04/12 06:35:09;;;;;;;3.45;1.20;;;13.30;1.00;;;;;;4955533;28;20062;-91
2022/04/12 06:37:35;;;;;;;5.53;1.15;;;13.40;1.00;;;;;;4973259;28;20031;-91
2022/04/12 06:40:02;;;;;;;2.25;1.15;;;13.30;1.00;;;;;;4955714;28;20054;-91
2022/04/12 06:42:28;;;;;;;2.65;1.17;;;13.40;1.00;;;;;;4955345;28;20523;-91
2022/04/12 06:44:54;;;;;;;3.00;1.25;;;13.50;1.00;;;;;;4955637;28;20027;-91
2022/04/12 06:47:20;;;;;;;3.85;1.55;;;13.60;1.00;;;;;;4960171;28;20190;-91
2022/04/12 06:49:47;;;;;;;2.22;1.20;;;13.60;1.00;;;;;;4959637;28;20129;-91
2022/04/12 06:52:14;;;;;;;4.28;1.50;;;13.60;1.00;;;;;;4960095;28;20122;-91
2022/04/12 06:54:40;;;;;;;3.10;1.20;;;13.70;1.00;;;;;;4976158;28;20243;-91
2022/04/12 06:57:06;;;;;;;5.32;1.70;;;13.80;1.00;;;;;;4959142;28;20498;-91
2022/04/12 06:59:33;;;;;;;3.05;1.10;;;13.80;1.00;;;;;;4976622;28;20050;-90
2022/04/12 07:01:59;;;;;;;2.70;1.20;;;13.90;1.00;;;;;;4959795;28;20034;-91
2022/04/12 07:04:24;;;;;;;2.75;1.00;;;13.90;1.00;;;;;;4976244;28;20023;-91
2022/04/12 07:06:50;;;;;;;5.60;1.10;;;14.00;1.00;;;;;;4959432;28;20026;-91
2022/04/12 07:09:20;;;;;;;1.95;1.25;;;14.00;1.00;;;;;;4975835;28;20037;-91
2022/04/12 07:11:50;;;;;;;8.90;1.40;;;14.10;1.00;;;;;;4959132;28;20022;-90
2022/04/12 07:14:16;;;;;;;2.15;1.23;;;14.10;1.00;;;;;;4976120;28;20035;-91
2022/04/12 07:16:41;;;;;;;2.08;1.00;;;14.20;1.00;;;;;;4959580;28;20049;-91
2022/04/12 07:19:07;;;;;;;2.83;1.10;;;14.30;1.00;;;;;;4975769;28;20475;-91
2022/04/12 07:21:33;;;;;;;2.78;1.17;;;14.40;1.00;;;;;;4976651;28;20133;-91
2022/04/12 07:23:59;;;;;;;3.20;1.35;;;14.50;1.00;;;;;;4959315;28;20058;-91
2022/04/12 07:26:28;;;;;;;3.45;1.20;;;14.60;1.00;;;;;;4942723;28;20653;-91
2022/04/12 07:28:53;;;;;;;4.38;1.45;;;14.80;1.00;;;;;;4977550;28;20023;-91
2022/04/12 07:31:19;;;;;;;3.50;1.27;;;14.70;1.00;;;;;;4975045;28;20521;-90
2022/04/12 07:33:45;;;;;;;4.18;1.25;;;14.90;1.00;;;;;;4958419;28;20486;-91
2022/04/12 07:36:11;;;;;;;3.63;1.00;;;14.90;1.00;;;;;;4958106;28;20035;-91
2022/04/12 07:38:36;;;;;;;3.05;1.13;;;15.00;1.00;;;;;;4958753;28;20027;-91
2022/04/12 07:41:04;;;;;;;4.28;1.15;;;15.10;1.00;;;;;;4958914;28;20376;-91
2022/04/12 07:43:30;;;;;;;4.78;0.85;;;15.20;1.00;;;;;;4975230;28;20031;-91
2022/04/12 07:45:55;;;;;;;3.33;1.35;;;15.20;1.00;;;;;;4958412;28;20026;-91
2022/04/12 07:48:21;;;;;;;3.25;1.23;;;15.10;1.00;;;;;;4958783;28;20030;-91
2022/04/12 07:50:47;;;;;;;1.55;0.90;;;15.00;1.00;;;;;;4974865;28;20468;-90
2022/04/12 07:53:12;;;;;;;1.83;1.00;;;14.90;1.00;;;;;;4975476;28;20038;-90
2022/04/12 07:55:38;;;;;;;2.75;1.00;;;15.10;1.00;;;;;;4958984;28;20051;-91
2022/04/12 07:58:04;;;;;;;3.03;1.40;;;15.20;1.00;;;;;;4946537;28;20023;-91
2022/04/12 08:00:29;;;;;;;1.98;1.08;;;15.30;1.00;;;;;;4951206;28;20044;-90
2022/04/12 08:02:55;;;;;;;4.30;1.00;;;15.50;1.00;;;;;;4975579;28;20037;-91
2022/04/12 08:05:20;;;;;;;2.75;1.05;;;15.60;1.00;;;;;;4958101;28;20026;-91
2022/04/12 08:07:49;;;;;;;3.70;1.00;;;15.70;1.00;;;;;;4958937;28;20031;-91
2022/04/12 08:10:18;;;;;;;5.45;1.20;;;15.60;1.00;;;;;;4974636;28;20023;-91
2022/04/12 08:12:45;;;;;;;3.65;1.08;;;15.60;1.00;;;;;;4956553;28;20081;-90
2022/04/12 08:15:13;;;;;;;1.90;1.00;;;15.60;1.00;;;;;;4974481;28;20110;-95
2022/04/12 08:17:40;;;;;;;3.08;0.90;;;15.70;1.00;;;;;;4958838;28;20043;-90
2022/04/12 08:20:07;;;;;;;5.80;1.20;;;15.70;1.00;;;;;;4959343;28;20023;-96
2022/04/12 08:22:33;;;;;;;2.47;0.93;;;15.50;1.00;;;;;;4978933;28;20038;-95
2022/04/12 08:24:59;;;;;;;2.55;1.00;;;15.60;1.00;;;;;;4959961;28;20025;-96
2022/04/12 08:27:26;;;;;;;3.83;1.23;;;15.70;1.00;;;;;;4959414;28;20038;-93
2022/04/12 08:29:59;;;;;;;3.42;1.10;;;15.60;1.00;;;;;;4957761;28;20039;-96
2022/04/12 08:32:37;;;;;;;2.70;1.00;;;15.60;1.00;;;;;;4947392;28;20026;-96
2022/04/12 08:35:05;;;;;;;2.90;1.10;;;15.50;99.90;;;;;;4979249;28;20037;-92
2022/04/12 08:37:31;;;;;;;1.98;1.10;;;15.60;1.00;;;;;;4939846;29;20031;-93
2022/04/12 08:39:56;;;;;;;4.35;0.90;;;15.50;1.00;;;;;;4953717;28;20073;-93
2022/04/12 08:42:22;;;;;;;2.15;1.00;;;15.50;1.00;;;;;;4974271;28;20070;-92
2022/04/12 08:44:50;;;;;;;3.65;1.00;;;15.60;1.00;;;;;;4957517;28;20101;-92
2022/04/12 08:47:17;;;;;;;2.75;1.08;;;15.60;1.00;;;;;;4957385;28;20038;-92
2022/04/12 08:49:43;;;;;;;1.70;1.10;;;15.50;1.00;;;;;;4958288;28;20030;-92
2022/04/12 08:52:11;;;;;;;2.63;1.02;;;15.40;1.00;;;;;;4957201;28;20027;-94
2022/04/12 08:54:41;;;;;;;2.20;1.08;;;15.50;1.00;;;;;;4956866;28;20030;-92
2022/04/12 08:57:09;;;;;;;3.22;1.08;;;15.60;1.00;;;;;;4974072;28;20499;-91
2022/04/12 08:59:35;;;;;;;3.63;1.13;;;15.60;1.00;;;;;;4956989;28;20022;-92
2022/04/12 09:02:01;;;;;;;4.13;1.27;;;15.60;1.00;;;;;;4957584;28;20031;-91
2022/04/12 09:04:27;;;;;;;2.38;1.05;;;15.70;1.00;;;;;;4957457;28;20476;-92
2022/04/12 09:06:56;;;;;;;1.88;1.08;;;15.80;1.00;;;;;;4956850;28;20027;-93
2022/04/12 09:09:24;;;;;;;2.28;1.50;;;15.80;1.00;;;;;;4956960;28;20081;-93
2022/04/12 09:11:57;;;;;;;2.55;1.10;;;15.70;1.00;;;;;;4957405;28;20041;-91
2022/04/12 09:14:24;;;;;;;3.88;1.10;;;15.70;1.00;;;;;;4957236;28;20023;-90
2022/04/12 09:16:51;;;;;;;2.55;0.90;;;15.80;1.00;;;;;;4973634;28;20041;-88
2022/04/12 09:19:51;;;;;;;1.17;0.90;;;15.80;1.00;;;;;;4951206;28;20045;-94
2022/04/12 09:22:20;;;;;;;3.28;1.35;;;15.80;1.00;;;;;;4973816;28;20039;-91
2022/04/12 09:24:51;;;;;;;2.15;0.90;;;15.80;1.00;;;;;;4956893;28;20395;-93
2022/04/12 09:27:21;;;;;;;2.67;1.08;;;15.80;1.00;;;;;;4956460;28;20054;-93
2022/04/12 09:29:52;;;;;;;2.38;1.17;;;15.80;1.00;;;;;;4973520;28;20037;-93
2022/04/12 09:32:25;;;;;;;3.97;1.10;;;15.80;1.00;;;;;;4956980;28;20031;-92
2022/04/12 09:34:53;;;;;;;3.10;0.90;;;15.80;1.00;;;;;;4974660;28;20038;-92
2022/04/12 09:37:19;;;;;;;3.78;1.08;;;15.80;1.00;;;;;;4956358;28;20038;-91
2022/04/12 09:40:06;;;;;;;3.95;1.10;;;15.80;1.00;;;;;;4973442;28;20158;-91
2022/04/12 09:42:48;;;;;;;3.88;1.13;;;15.80;1.00;;;;;;4972984;28;20046;-89
2022/04/12 09:45:19;;;;;;;7.60;1.20;;;15.80;1.00;;;;;;4973334;28;20022;-90
2022/04/12 09:47:47;;;;;;;1.75;0.95;;;15.80;1.00;;;;;;4956527;28;20030;-91
2022/04/12 09:50:13;;;;;;;2.72;1.13;;;16.00;1.00;;;;;;4956241;28;20030;-91
2022/04/12 09:52:50;;;;;;;2.85;1.20;;;16.00;1.00;;;;;;4956630;28;20026;-91
2022/04/12 09:55:34;;;;;;;2.80;1.10;;;15.90;1.00;;;;;;4973048;28;20054;-89
2022/04/12 09:58:05;;;;;;;2.97;1.20;;;16.10;1.00;;;;;;4972708;28;20038;-92
2022/04/12 10:00:32;;;;;;;1.65;0.90;;;16.10;1.00;;;;;;4956223;28;20022;-88
2022/04/12 10:03:01;;;;;;;3.70;0.95;;;16.10;1.00;;;;;;4955830;28;20035;-90
2022/04/12 10:05:28;;;;;;;4.90;1.20;;;16.20;1.00;;;;;;4939977;28;20073;-89
2022/04/12 10:08:00;;;;;;;2.50;1.05;;;16.30;1.00;;;;;;4968956;28;20027;-90
2022/04/12 10:10:44;;;;;;;3.63;1.13;;;16.30;1.00;;;;;;4974221;28;20042;-96
2022/04/12 10:13:13;;;;;;;2.45;1.10;;;16.20;1.00;;;;;;4990919;28;20046;-96
2022/04/12 10:15:39;;;;;;;2.40;1.20;;;16.30;1.00;;;;;;4951724;29;20509;-96
2022/04/12 10:18:06;;;;;;;1.80;0.98;;;16.20;1.00;;;;;;4951403;29;20027;-96
2022/04/12 10:20:57;;;;;;;4.15;1.20;;;16.30;1.00;;;;;;4949056;28;20034;-96
2022/04/12 10:23:42;;;;;;;2.17;1.38;;;16.30;1.00;;;;;;4978788;28;20015;-96
2022/04/12 10:26:09;;;;;;;2.75;1.05;;;16.40;1.00;;;;;;4995757;28;20058;-95
2022/04/12 10:28:44;;;;;;;3.03;1.10;;;16.30;1.00;;;;;;4968770;28;20043;-96
2022/04/12 10:31:14;;;;;;;2.47;1.20;;;16.30;1.00;;;;;;4987927;28;20108;-96
2022/04/12 10:33:39;;;;;;;2.50;0.90;;;16.40;1.00;;;;;;4965941;28;20489;-91
2022/04/12 10:36:07;;;;;;;2.00;1.20;;;16.40;1.00;;;;;;4965991;28;20043;-91
2022/04/12 10:39:16;;;;;;;2.65;1.27;;;16.40;1.00;;;;;;4978886;28;20549;-95
2022/04/12 10:41:42;;;;;;;3.47;1.40;;;16.60;1.00;;;;;;4968506;28;20039;-96
2022/04/12 10:44:19;;;;;;;3.45;1.10;;;16.80;99.90;;;;;;4984440;28;20047;-96
2022/04/12 10:46:48;;;;;;;2.85;1.05;;;17.00;1.00;;;;;;4962484;28;20027;-96
2022/04/12 10:49:21;;;;;;;3.38;1.15;;;16.90;1.00;;;;;;4963240;28;20027;-96
2022/04/12 10:52:09;;;;;;;2.78;0.98;;;16.90;1.00;;;;;;4978509;28;20398;-96
2022/04/12 10:54:35;;;;;;;2.17;0.98;;;17.10;1.00;;;;;;4986192;28;20034;-96
2022/04/12 10:57:23;;;;;;;2.45;1.00;;;17.10;1.00;;;;;;4981178;28;20035;-96
2022/04/12 10:59:57;;;;;;;4.25;1.05;;;17.20;1.00;;;;;;4968036;28;20031;-93
2022/04/12 11:02:30;;;;;;;3.63;1.40;;;17.60;1.00;;;;;;4969420;28;20383;-96
2022/04/12 11:04:56;;;;;;;1.88;1.23;;;17.70;1.00;;;;;;4950901;28;20039;-96
2022/04/12 11:07:38;;;;;;;1.77;1.20;;;18.20;1.00;;;;;;4982652;28;20026;-96
2022/04/12 11:10:13;;;;;;;3.67;1.05;;;18.40;1.00;;;;;;4969924;28;20139;-93
2022/04/12 11:12:45;;;;;;;3.15;1.42;;;18.80;1.00;;;;;;4975294;28;20027;-88
2022/04/12 11:15:28;;;;;;;3.63;1.48;;;18.90;1.00;;;;;;4975395;28;20038;-90
2022/04/12 11:18:07;;;;;;;7.70;1.40;;;18.80;1.00;;;;;;4977194;28;20459;-89
2022/04/12 11:20:41;;;;;;;2.55;1.30;;;19.10;1.00;;;;;;4984114;28;20031;-96
2022/04/12 11:23:09;;;;;;;3.17;1.60;;;19.20;1.00;;;;;;4974880;28;20046;-95
2022/04/12 11:25:44;;;;;;;2.10;1.10;;;19.30;1.00;;;;;;4976802;28;20043;-89
2022/04/12 11:28:12;;;;;;;2.75;1.20;;;19.50;1.00;;;;;;4975156;28;20031;-89
2022/04/12 11:30:38;;;;;;;4.22;1.38;;;19.60;1.00;;;;;;4975113;28;20034;-88
2022/04/12 11:33:04;;;;;;;2.53;1.23;;;19.10;1.00;;;;;;4974732;28;20406;-88
2022/04/12 11:35:32;;;;;;;2.03;1.20;;;19.20;1.00;;;;;;4956653;28;20023;-88
2022/04/12 11:37:57;;;;;;;5.07;1.40;;;19.30;1.00;;;;;;4976125;28;20062;-88
2022/04/12 11:40:25;;;;;;;1.38;0.98;;;19.60;1.00;;;;;;4974201;28;20054;-88
2022/04/12 11:42:55;;;;;;;3.67;1.45;;;19.40;1.00;;;;;;4974568;28;20050;-88
2022/04/12 11:45:30;;;;;;;4.38;1.30;;;19.60;1.00;;;;;;4974638;28;20174;-88
2022/04/12 11:47:57;;;;;;;3.17;1.33;;;20.00;1.00;;;;;;4974490;28;20027;-88
2022/04/12 11:50:23;;;;;;;2.45;1.20;;;20.30;1.00;;;;;;4974880;28;20026;-88
2022/04/12 11:52:49;;;;;;;2.55;1.20;;;20.50;1.00;;;;;;4974845;28;20395;-88
2022/04/12 11:55:15;;;;;;;3.42;1.33;;;20.50;1.00;;;;;;4974109;28;20058;-88
2022/04/12 11:57:40;;;;;;;2.40;1.40;;;20.50;1.00;;;;;;4973988;28;20035;-88
2022/04/12 12:00:08;;;;;;;3.80;1.42;;;20.50;1.00;;;;;;4974454;28;20042;-88
2022/04/12 12:02:37;;;;;;;3.40;1.20;;;20.20;1.00;;;;;;4974378;28;20052;-88
2022/04/12 12:05:09;;;;;;;2.85;1.30;;;19.90;1.00;;;;;;4974856;28;20038;-87
2022/04/12 12:07:36;;;;;;;3.83;1.40;;;20.20;1.00;;;;;;4975005;28;20035;-88
2022/04/12 12:10:09;;;;;;;1.98;1.13;;;20.60;1.00;;;;;;4973987;28;20413;-88
2022/04/12 12:12:46;;;;;;;3.08;1.33;;;20.20;1.00;;;;;;4957162;28;20106;-88
2022/04/12 12:15:22;;;;;;;3.63;1.67;;;20.20;1.00;;;;;;4956254;28;20403;-88
2022/04/12 12:17:50;;;;;;;2.17;1.40;;;20.20;1.00;;;;;;4973893;28;20042;-88
2022/04/12 12:20:18;;;;;;;5.00;1.27;;;20.20;1.00;;;;;;4956445;28;20031;-88
2022/04/12 12:22:45;;;;;;;3.78;1.35;;;20.20;1.00;;;;;;4957119;28;20031;-88
2022/04/12 12:25:18;;;;;;;1.92;1.30;;;19.80;1.00;;;;;;4956501;28;20175;-88
2022/04/12 12:27:52;;;;;;;3.10;1.55;;;20.00;1.00;;;;;;4973893;28;20487;-88
2022/04/12 12:30:20;;;;;;;3.30;1.50;;;19.80;1.00;;;;;;4956389;28;20110;-88
2022/04/12 12:32:51;;;;;;;3.13;1.40;;;20.00;1.00;;;;;;4973308;28;20035;-88
2022/04/12 12:35:17;;;;;;;3.05;1.30;;;20.10;1.00;;;;;;4974156;28;20034;-88
2022/04/12 12:37:45;;;;;;;2.95;2.33;;;20.30;1.00;;;;;;4974037;28;20399;-88
2022/04/12 12:40:18;;;;;;;3.60;1.60;;;20.20;1.00;;;;;;4973630;28;20484;-88
2022/04/12 12:42:44;;;;;;;1.50;1.20;;;20.20;1.00;;;;;;4973040;28;20043;-88
2022/04/12 12:45:12;;;;;;;2.53;1.67;;;20.20;1.00;;;;;;4973524;28;20031;-88
2022/04/12 12:47:40;;;;;;;2.45;1.60;;;20.10;1.00;;;;;;4956187;28;20500;-88
2022/04/12 12:50:13;;;;;;;4.70;1.30;;;19.90;1.00;;;;;;4956484;28;20031;-88
2022/04/12 12:52:40;;;;;;;3.50;1.67;;;19.70;1.00;;;;;;4971569;28;20027;-87
2022/04/12 12:55:08;;;;;;;2.08;1.40;;;19.70;1.00;;;;;;4973019;28;20031;-88
2022/04/12 12:57:38;;;;;;;3.00;1.75;;;19.70;1.00;;;;;;4973311;28;20043;-88
2022/04/12 13:00:07;;;;;;;3.15;1.38;;;19.90;1.00;;;;;;4973274;28;20025;-88
2022/04/12 13:02:34;;;;;;;3.85;1.35;;;19.60;1.00;;;;;;4973049;28;20045;-88
2022/04/12 13:05:05;;;;;;;3.38;1.80;;;19.40;1.00;;;;;;4973596;28;20109;-88